Time;durP1;ratioP1;P1;durP2;ratioP2;P2;SDS_P1;SDS_P2;PMS_P1;PMS_P2;Temp;Humidity;BMP_temperature;BMP_pressure;BME280_temperature;BME280_humidity;BME280_pressure;Samples;Min_cycle;Max_cycle;Signal;HPM_P1;HPM_P2
2022/04/10 00:00:51;;;;;;;;;17.00;16.60;;;;;;;;5248342;28;8793;-70
2022/04/10 00:03:23;;;;;;;;;14.60;14.60;;;;;;;;5248121;28;8777;-68
2022/04/10 00:05:55;;;;;;;;;20.20;19.60;;;;;;;;5205456;28;8821;-68
2022/04/10 00:08:26;;;;;;;;;21.60;21.40;;;;;;;;5250741;28;8763;-68
2022/04/10 00:10:58;;;;;;;;;20.40;20.40;;;;;;;;5267186;28;8785;-69
2022/04/10 00:13:30;;;;;;;;;18.00;18.00;;;;;;;;5233844;28;8806;-68
2022/04/10 00:16:02;;;;;;;;;17.80;17.80;;;;;;;;5268518;28;8840;-68
2022/04/10 00:18:36;;;;;;;;;25.60;25.60;;;;;;;;5251033;28;8805;-69
2022/04/10 00:21:25;;;;;;;;;39.20;36.60;;;;;;;;5268185;28;8800;-69
2022/04/10 00:23:57;;;;;;;;;30.80;30.40;;;;;;;;5250054;28;9508;-69
2022/04/10 00:26:28;;;;;;;;;24.00;24.00;;;;;;;;5232959;28;8782;-69
2022/04/10 00:29:01;;;;;;;;;23.80;22.80;;;;;;;;5233217;28;8909;-69
2022/04/10 00:31:33;;;;;;;;;25.20;25.20;;;;;;;;5228419;28;8793;-69
2022/04/10 00:34:05;;;;;;;;;33.80;33.20;;;;;;;;5212777;28;8892;-69
2022/04/10 00:36:36;;;;;;;;;25.40;24.80;;;;;;;;5214285;28;8812;-69
2022/04/10 00:39:08;;;;;;;;;23.00;23.00;;;;;;;;5213712;28;8785;-69
2022/04/10 00:41:40;;;;;;;;;24.20;24.00;;;;;;;;5233394;28;8826;-70
2022/04/10 00:44:33;;;;;;;;;15.40;15.40;;;;;;;;5251436;28;9504;-70
2022/04/10 00:47:24;;;;;;;;;12.20;12.20;;;;;;;;5252091;28;8788;-70
2022/04/10 00:50:00;;;;;;;;;15.80;15.80;;;;;;;;5238480;28;8895;-70
2022/04/10 00:52:50;;;;;;;;;10.60;10.60;;;;;;;;5256244;28;8786;-70
2022/04/10 00:55:22;;;;;;;;;7.20;7.20;;;;;;;;5258150;28;8809;-70
2022/04/10 00:58:12;;;;;;;;;12.60;12.60;;;;;;;;5280390;28;8839;-70
2022/04/10 01:00:43;;;;;;;;;22.20;21.80;;;;;;;;5276296;28;8775;-70
2022/04/10 01:03:15;;;;;;;;;49.40;41.40;;;;;;;;5234146;28;8787;-69
2022/04/10 01:05:47;;;;;;;;;45.40;40.60;;;;;;;;5233805;28;8783;-69
2022/04/10 01:08:19;;;;;;;;;33.60;31.60;;;;;;;;5269071;28;8793;-69
2022/04/10 01:10:51;;;;;;;;;21.20;20.80;;;;;;;;5251764;28;8829;-69
2022/04/10 01:13:23;;;;;;;;;23.60;23.20;;;;;;;;5251625;28;8786;-68
2022/04/10 01:15:55;;;;;;;;;23.20;23.20;;;;;;;;5234516;28;8923;-68
2022/04/10 01:18:27;;;;;;;;;30.80;30.80;;;;;;;;5235157;28;8972;-68
2022/04/10 01:21:03;;;;;;;;;35.80;35.00;;;;;;;;5252014;28;8802;-68
2022/04/10 01:23:38;;;;;;;;;26.40;26.40;;;;;;;;5249510;28;9481;-67
2022/04/10 01:26:13;;;;;;;;;38.40;36.40;;;;;;;;5233175;28;8795;-67
2022/04/10 01:29:03;;;;;;;;;22.40;22.40;;;;;;;;5238604;28;8774;-68
2022/04/10 01:31:53;;;;;;;;;16.80;16.80;;;;;;;;5256772;28;8865;-68
2022/04/10 01:34:25;;;;;;;;;26.60;26.60;;;;;;;;5221504;28;8854;-68
2022/04/10 01:36:57;;;;;;;;;26.00;23.40;;;;;;;;5270968;28;8818;-68
2022/04/10 01:39:29;;;;;;;;;46.20;40.40;;;;;;;;5253645;28;9570;-68
2022/04/10 01:42:00;;;;;;;;;46.00;41.40;;;;;;;;5236608;28;8825;-68
2022/04/10 01:44:41;;;;;;;;;43.00;37.80;;;;;;;;5253391;28;8778;-68
2022/04/10 01:47:14;;;;;;;;;28.20;24.80;;;;;;;;5253512;28;8834;-68
2022/04/10 01:49:46;;;;;;;;;23.20;22.40;;;;;;;;5238239;28;8786;-68
2022/04/10 01:52:19;;;;;;;;;24.00;24.00;;;;;;;;5270932;28;8787;-68
2022/04/10 01:54:52;;;;;;;;;30.80;30.40;;;;;;;;5220378;28;9493;-68
2022/04/10 01:57:23;;;;;;;;;26.20;25.40;;;;;;;;5270204;28;8830;-68
2022/04/10 01:59:56;;;;;;;;;27.80;27.20;;;;;;;;5236835;28;8982;-68
2022/04/10 02:02:29;;;;;;;;;24.80;24.40;;;;;;;;5252754;28;8779;-69
2022/04/10 02:05:01;;;;;;;;;31.60;31.60;;;;;;;;5236091;28;8759;-68
2022/04/10 02:07:32;;;;;;;;;25.20;24.60;;;;;;;;5235209;28;8787;-68
2022/04/10 02:10:04;;;;;;;;;18.60;18.60;;;;;;;;5235933;28;8778;-68
2022/04/10 02:12:37;;;;;;;;;19.60;19.60;;;;;;;;5252067;28;8769;-69
2022/04/10 02:15:08;;;;;;;;;19.80;19.80;;;;;;;;5251325;28;8770;-68
2022/04/10 02:17:58;;;;;;;;;23.80;23.80;;;;;;;;5251684;28;8806;-68
2022/04/10 02:20:30;;;;;;;;;15.00;15.00;;;;;;;;5234978;28;8841;-67
2022/04/10 02:23:02;;;;;;;;;16.40;16.40;;;;;;;;5218118;28;8805;-67
2022/04/10 02:25:34;;;;;;;;;17.40;17.40;;;;;;;;5234615;28;8774;-68
2022/04/10 02:28:06;;;;;;;;;26.20;25.80;;;;;;;;5269391;28;8774;-68
2022/04/10 02:30:38;;;;;;;;;24.80;23.40;;;;;;;;5250711;28;8771;-68
2022/04/10 02:33:28;;;;;;;;;18.00;18.00;;;;;;;;5240256;28;8798;-68
2022/04/10 02:35:59;;;;;;;;;20.00;20.00;;;;;;;;5270342;28;8798;-68
2022/04/10 02:38:32;;;;;;;;;14.20;14.00;;;;;;;;5249506;28;8775;-68
2022/04/10 02:41:22;;;;;;;;;11.20;11.20;;;;;;;;5250205;28;8791;-70
2022/04/10 02:43:57;;;;;;;;;22.20;21.20;;;;;;;;5228632;28;9666;-69
2022/04/10 02:46:29;;;;;;;;;17.20;16.40;;;;;;;;5250245;28;9533;-69
2022/04/10 02:49:01;;;;;;;;;13.20;13.20;;;;;;;;5234471;28;8790;-68
2022/04/10 02:51:32;;;;;;;;;19.40;19.40;;;;;;;;5234061;28;8783;-69
2022/04/10 02:54:04;;;;;;;;;18.60;18.60;;;;;;;;5250771;28;8791;-69
2022/04/10 02:56:54;;;;;;;;;14.40;14.20;;;;;;;;5253134;28;8798;-69
2022/04/10 02:59:43;;;;;;;;;16.20;15.40;;;;;;;;5253412;28;8805;-69
2022/04/10 03:02:33;;;;;;;;;22.40;21.20;;;;;;;;5253511;28;8774;-69
2022/04/10 03:05:42;;;;;;;;;24.00;23.80;;;;;;;;5254834;28;8775;-69
2022/04/10 03:08:32;;;;;;;;;27.80;26.80;;;;;;;;5238716;28;8774;-69
2022/04/10 03:11:25;;;;;;;;;21.00;21.00;;;;;;;;5252123;28;8917;-68
2022/04/10 03:14:16;;;;;;;;;24.60;24.40;;;;;;;;5253624;28;8774;-68
2022/04/10 03:17:06;;;;;;;;;30.40;30.40;;;;;;;;5267933;28;8822;-68
2022/04/10 03:19:55;;;;;;;;;36.80;35.80;;;;;;;;5267547;28;8941;-68
2022/04/10 03:22:47;;;;;;;;;26.80;24.60;;;;;;;;5252458;28;9484;-68
2022/04/10 03:25:38;;;;;;;;;12.00;11.40;;;;;;;;5238939;28;8811;-68
2022/04/10 03:28:29;;;;;;;;;23.20;23.20;;;;;;;;5252907;28;8767;-69
2022/04/10 03:31:37;;;;;;;;;28.40;28.40;;;;;;;;5255463;28;8787;-69
2022/04/10 03:34:27;;;;;;;;;40.20;37.00;;;;;;;;5252762;28;8775;-69
2022/04/10 03:37:36;;;;;;;;;36.80;34.40;;;;;;;;5267954;28;8794;-69
2022/04/10 03:40:27;;;;;;;;;21.00;21.00;;;;;;;;5267817;28;8775;-69
2022/04/10 03:43:18;;;;;;;;;20.60;20.60;;;;;;;;5238627;28;8782;-69
2022/04/10 03:46:09;;;;;;;;;27.60;25.40;;;;;;;;5238763;28;8790;-70
2022/04/10 03:49:17;;;;;;;;;26.80;26.20;;;;;;;;5267347;28;8802;-69
2022/04/10 03:52:08;;;;;;;;;30.60;30.60;;;;;;;;5252731;28;9618;-70
2022/04/10 03:54:58;;;;;;;;;20.60;20.60;;;;;;;;5252740;28;8841;-70
2022/04/10 03:57:50;;;;;;;;;30.00;29.40;;;;;;;;5232954;28;8842;-72
2022/04/10 04:00:41;;;;;;;;;43.40;38.80;;;;;;;;5231815;28;8815;-71
2022/04/10 04:03:38;;;;;;;;;39.00;36.20;;;;;;;;5211340;28;8789;-72
2022/04/10 04:06:32;;;;;;;;;38.20;37.20;;;;;;;;5247769;28;8814;-71
2022/04/10 04:09:23;;;;;;;;;34.00;33.80;;;;;;;;5244002;28;8909;-73
2022/04/10 04:12:14;;;;;;;;;26.20;26.20;;;;;;;;5246560;28;8775;-71
2022/04/10 04:15:07;;;;;;;;;28.20;28.20;;;;;;;;5245850;28;9521;-71
2022/04/10 04:17:59;;;;;;;;;55.60;46.00;;;;;;;;5230546;28;8837;-71
2022/04/10 04:20:50;;;;;;;;;48.60;42.20;;;;;;;;5231066;28;8779;-71
2022/04/10 04:23:43;;;;;;;;;51.80;43.40;;;;;;;;5259347;28;8810;-70
2022/04/10 04:26:34;;;;;;;;;46.80;41.20;;;;;;;;5238684;28;9598;-71
2022/04/10 04:29:25;;;;;;;;;37.40;37.00;;;;;;;;5238669;28;8794;-71
2022/04/10 04:32:16;;;;;;;;;33.40;33.40;;;;;;;;5240577;28;8811;-71
2022/04/10 04:35:06;;;;;;;;;28.80;28.80;;;;;;;;5245113;28;9530;-71
2022/04/10 04:37:58;;;;;;;;;19.00;19.00;;;;;;;;5223855;28;8825;-71
2022/04/10 04:40:48;;;;;;;;;19.60;19.60;;;;;;;;5224136;28;8919;-71
2022/04/10 04:43:38;;;;;;;;;19.20;18.80;;;;;;;;5226239;28;8871;-71
2022/04/10 04:46:28;;;;;;;;;15.80;15.80;;;;;;;;5245022;28;8810;-69
2022/04/10 04:49:19;;;;;;;;;19.60;19.60;;;;;;;;5244301;28;8771;-68
2022/04/10 04:52:09;;;;;;;;;21.20;20.80;;;;;;;;5224522;28;8785;-68
2022/04/10 04:54:59;;;;;;;;;20.40;20.40;;;;;;;;5247999;28;8890;-66
2022/04/10 04:57:50;;;;;;;;;13.00;13.00;;;;;;;;5249326;28;9118;-67
2022/04/10 05:00:41;;;;;;;;;20.00;20.00;;;;;;;;5245039;28;9531;-67
2022/04/10 05:03:31;;;;;;;;;17.20;17.20;;;;;;;;5231965;28;8781;-67
2022/04/10 05:06:40;;;;;;;;;24.80;23.60;;;;;;;;5248073;28;8822;-67
2022/04/10 05:09:30;;;;;;;;;21.40;21.00;;;;;;;;5248985;28;8851;-66
2022/04/10 05:12:20;;;;;;;;;23.00;23.00;;;;;;;;5223230;28;8827;-67
2022/04/10 05:15:11;;;;;;;;;30.20;30.20;;;;;;;;5247818;28;9525;-66
2022/04/10 05:18:06;;;;;;;;;31.60;30.80;;;;;;;;5247212;28;8957;-67
2022/04/10 05:20:59;;;;;;;;;30.40;29.40;;;;;;;;5262483;28;8806;-64
2022/04/10 05:23:50;;;;;;;;;18.20;18.20;;;;;;;;5234368;28;8848;-66
2022/04/10 05:26:43;;;;;;;;;18.60;18.60;;;;;;;;5234235;28;8806;-67
2022/04/10 05:29:34;;;;;;;;;12.40;12.40;;;;;;;;5262056;28;8803;-66
2022/04/10 05:32:24;;;;;;;;;40.40;36.40;;;;;;;;5248718;28;8807;-66
2022/04/10 05:35:14;;;;;;;;;17.80;17.60;;;;;;;;5233206;28;8815;-66
2022/04/10 05:38:05;;;;;;;;;14.00;14.00;;;;;;;;5249327;28;8807;-67
2022/04/10 05:40:58;;;;;;;;;17.60;16.80;;;;;;;;5248752;28;8775;-66
2022/04/10 05:44:06;;;;;;;;;22.20;20.20;;;;;;;;5248537;28;8752;-66
2022/04/10 05:46:57;;;;;;;;;22.00;21.00;;;;;;;;5249213;28;8827;-67
2022/04/10 05:50:09;;;;;;;;;14.00;14.00;;;;;;;;5240912;28;8826;-68
2022/04/10 05:53:02;;;;;;;;;14.40;14.20;;;;;;;;5247946;28;8826;-68
2022/04/10 05:55:53;;;;;;;;;13.40;13.40;;;;;;;;5261400;28;8918;-67
2022/04/10 05:58:48;;;;;;;;;10.20;10.20;;;;;;;;5253026;28;8830;-68
2022/04/10 06:01:39;;;;;;;;;23.20;23.00;;;;;;;;5261787;28;8787;-67
2022/04/10 06:04:29;;;;;;;;;21.20;21.20;;;;;;;;5247566;28;8759;-67
2022/04/10 06:07:19;;;;;;;;;26.60;26.60;;;;;;;;5247639;28;8791;-67
2022/04/10 06:10:09;;;;;;;;;37.20;36.80;;;;;;;;5247444;28;8783;-67
2022/04/10 06:13:10;;;;;;;;;29.20;29.00;;;;;;;;5262235;28;8782;-67
2022/04/10 06:15:47;;;;;;;;;19.20;18.20;;;;;;;;5213927;28;8917;-67
2022/04/10 06:18:19;;;;;;;;;16.00;15.60;;;;;;;;5247394;28;8898;-67
2022/04/10 06:21:09;;;;;;;;;19.40;19.40;;;;;;;;5233162;28;8818;-68
2022/04/10 06:23:41;;;;;;;;;17.80;17.80;;;;;;;;5230541;28;8803;-68
2022/04/10 06:26:31;;;;;;;;;20.40;19.60;;;;;;;;5232770;28;8904;-68
2022/04/10 06:29:03;;;;;;;;;12.40;12.40;;;;;;;;5246637;28;9541;-68
2022/04/10 06:31:45;;;;;;;;;16.60;16.60;;;;;;;;5246633;28;8797;-69
2022/04/10 06:34:17;;;;;;;;;19.80;19.80;;;;;;;;5247183;28;8771;-69
2022/04/10 06:36:49;;;;;;;;;21.60;21.20;;;;;;;;5230392;28;8807;-69
2022/04/10 06:39:23;;;;;;;;;21.60;21.60;;;;;;;;5230622;28;8799;-69
2022/04/10 06:41:58;;;;;;;;;20.40;20.40;;;;;;;;5230777;28;8925;-69
2022/04/10 06:44:48;;;;;;;;;19.20;19.20;;;;;;;;5225865;28;8786;-69
2022/04/10 06:47:27;;;;;;;;;18.60;18.60;;;;;;;;5221855;28;9560;-69
2022/04/10 06:49:59;;;;;;;;;16.80;16.80;;;;;;;;5209041;28;8785;-70
2022/04/10 06:52:31;;;;;;;;;10.00;10.00;;;;;;;;5193065;28;8778;-70
2022/04/10 06:55:21;;;;;;;;;19.60;19.60;;;;;;;;5211945;28;9524;-70
2022/04/10 06:57:53;;;;;;;;;26.00;25.60;;;;;;;;5209178;28;8821;-70
2022/04/10 07:00:27;;;;;;;;;17.40;17.40;;;;;;;;5225711;28;8812;-70
2022/04/10 07:03:01;;;;;;;;;19.60;19.60;;;;;;;;5239541;28;8772;-70
2022/04/10 07:05:36;;;;;;;;;19.20;19.20;;;;;;;;5201405;28;8783;-70
2022/04/10 07:08:44;;;;;;;;;16.80;16.80;;;;;;;;5246821;28;8786;-70
2022/04/10 07:11:34;;;;;;;;;27.20;26.60;;;;;;;;5232776;28;8799;-71
2022/04/10 07:14:08;;;;;;;;;19.40;19.40;;;;;;;;5230344;28;8798;-71
2022/04/10 07:16:40;;;;;;;;;22.20;21.40;;;;;;;;5229720;28;8814;-70
2022/04/10 07:19:11;;;;;;;;;26.20;24.00;;;;;;;;5247361;28;8787;-70
2022/04/10 07:24:35;;;;;;;;;21.80;21.80;;;;;;;;5229618;28;8794;-69
2022/04/10 07:27:07;;;;;;;;;22.60;21.80;;;;;;;;5245358;28;9553;-71
2022/04/10 07:29:46;;;;;;;;;25.20;24.20;;;;;;;;5229830;28;8830;-67
2022/04/10 07:32:19;;;;;;;;;35.20;33.80;;;;;;;;5245798;28;8799;-70
2022/04/10 07:35:01;;;;;;;;;26.20;26.20;;;;;;;;5246046;28;8783;-69
2022/04/10 07:37:56;;;;;;;;;19.40;19.20;;;;;;;;5229063;28;9561;-70
2022/04/10 07:40:27;;;;;;;;;23.80;23.40;;;;;;;;5245330;28;8953;-69
2022/04/10 07:42:59;;;;;;;;;16.20;16.20;;;;;;;;5212697;28;8771;-69
2022/04/10 07:48:35;;;;;;;;;37.80;35.20;;;;;;;;5240718;28;8820;-68
2022/04/10 07:51:07;;;;;;;;;60.40;49.60;;;;;;;;5224958;28;9520;-68
2022/04/10 07:53:57;;;;;;;;;39.40;36.80;;;;;;;;5239204;28;8812;-68
2022/04/10 07:56:30;;;;;;;;;54.20;44.00;;;;;;;;5224457;28;8819;-68
2022/04/10 07:59:02;;;;;;;;;31.80;31.00;;;;;;;;5236372;28;8824;-69
2022/04/10 08:01:41;;;;;;;;;17.40;17.40;;;;;;;;5244930;28;8814;-69
2022/04/10 08:04:16;;;;;;;;;17.20;17.20;;;;;;;;5222542;28;8799;-68
2022/04/10 08:06:58;;;;;;;;;14.00;14.00;;;;;;;;5228337;28;8807;-68
2022/04/10 08:09:29;;;;;;;;;28.20;27.20;;;;;;;;5228410;28;8788;-68
2022/04/10 08:12:00;;;;;;;;;18.80;18.80;;;;;;;;5245285;28;8819;-68
2022/04/10 08:14:31;;;;;;;;;21.20;20.20;;;;;;;;5228590;28;8934;-68
2022/04/10 08:17:02;;;;;;;;;17.80;17.80;;;;;;;;5228734;28;8820;-68
2022/04/10 08:19:33;;;;;;;;;16.00;16.00;;;;;;;;5245226;28;8804;-68
2022/04/10 08:22:26;;;;;;;;;16.80;16.80;;;;;;;;5242877;28;9498;-68
2022/04/10 08:25:06;;;;;;;;;17.25;17.25;;;;;;;;5209171;28;8793;-68
2022/04/10 08:27:37;;;;;;;;;14.75;14.50;;;;;;;;5227985;28;8779;-69
2022/04/10 08:30:09;;;;;;;;;17.25;16.75;;;;;;;;5244317;28;8775;-69
2022/04/10 08:32:42;;;;;;;;;16.00;16.00;;;;;;;;5244391;28;8792;-69
2022/04/10 08:35:13;;;;;;;;;17.00;16.50;;;;;;;;5245047;28;8792;-68
2022/04/10 08:37:44;;;;;;;;;11.75;11.75;;;;;;;;5227446;28;8815;-68
2022/04/10 08:40:15;;;;;;;;;13.75;12.75;;;;;;;;5249289;28;8847;-68
2022/04/10 08:42:47;;;;;;;;;16.00;16.00;;;;;;;;5265652;28;8811;-69
2022/04/10 08:45:23;;;;;;;;;16.00;16.00;;;;;;;;5231133;28;8783;-69
2022/04/10 08:47:55;;;;;;;;;16.50;16.25;;;;;;;;5250433;28;8877;-69
2022/04/10 08:50:26;;;;;;;;;19.00;18.75;;;;;;;;5228037;28;8782;-67
2022/04/10 08:52:58;;;;;;;;;27.00;26.60;;;;;;;;5228401;28;8781;-68
2022/04/10 08:55:29;;;;;;;;;14.50;14.50;;;;;;;;5228253;28;8912;-68
2022/04/10 08:58:03;;;;;;;;;19.25;19.25;;;;;;;;5221273;28;9003;-68
2022/04/10 09:00:35;;;;;;;;;17.75;17.50;;;;;;;;5232490;28;8897;-68
2022/04/10 09:03:06;;;;;;;;;15.75;15.75;;;;;;;;5232361;28;8787;-68
2022/04/10 09:05:37;;;;;;;;;14.00;14.00;;;;;;;;5248711;28;8856;-68
2022/04/10 09:08:11;;;;;;;;;17.25;16.50;;;;;;;;5248839;28;9411;-70
2022/04/10 09:11:02;;;;;;;;;24.75;24.50;;;;;;;;5248757;28;8771;-69
2022/04/10 09:13:37;;;;;;;;;17.25;17.00;;;;;;;;5248875;28;8767;-70
2022/04/10 09:16:10;;;;;;;;;15.75;15.75;;;;;;;;5231689;28;8863;-70
2022/04/10 09:18:47;;;;;;;;;15.50;15.00;;;;;;;;5248693;28;8884;-70
2022/04/10 09:21:20;;;;;;;;;13.25;13.25;;;;;;;;5232067;28;8794;-70
2022/04/10 09:23:55;;;;;;;;;10.75;10.75;;;;;;;;5248719;28;8825;-69
2022/04/10 09:26:52;;;;;;;;;5.00;5.00;;;;;;;;5234310;28;8791;-70
2022/04/10 09:29:49;;;;;;;;;14.80;14.80;;;;;;;;5248686;28;8872;-69
2022/04/10 09:32:20;;;;;;;;;13.75;13.25;;;;;;;;5248186;28;8793;-69
2022/04/10 09:34:57;;;;;;;;;14.00;14.00;;;;;;;;5248211;28;8791;-69
2022/04/10 09:37:30;;;;;;;;;14.00;13.75;;;;;;;;5248335;28;8814;-70
2022/04/10 09:40:20;;;;;;;;;15.50;13.25;;;;;;;;5248148;28;8969;-70
2022/04/10 09:43:01;;;;;;;;;14.75;14.75;;;;;;;;5248153;28;8783;-69
2022/04/10 09:45:35;;;;;;;;;15.00;15.00;;;;;;;;5231994;28;9702;-69
2022/04/10 09:48:21;;;;;;;;;16.40;16.20;;;;;;;;5249193;28;8824;-69
2022/04/10 09:50:53;;;;;;;;;23.20;23.20;;;;;;;;5247963;28;8786;-69
2022/04/10 09:53:26;;;;;;;;;23.80;23.80;;;;;;;;5249075;28;8787;-69
2022/04/10 09:56:00;;;;;;;;;14.60;14.60;;;;;;;;5248023;28;9486;-69
2022/04/10 09:58:49;;;;;;;;;10.25;10.25;;;;;;;;5247492;28;9580;-69
2022/04/10 10:01:20;;;;;;;;;10.33;10.33;;;;;;;;5243558;28;8801;-69
2022/04/10 10:03:52;;;;;;;;;11.00;11.00;;;;;;;;5243528;28;10060;-67
2022/04/10 10:06:24;;;;;;;;;12.80;12.40;;;;;;;;5210267;28;9508;-69
2022/04/10 10:08:55;;;;;;;;;15.20;15.20;;;;;;;;5239942;28;8860;-70
2022/04/10 10:11:26;;;;;;;;;18.60;18.60;;;;;;;;5209853;28;8820;-70
2022/04/10 10:13:57;;;;;;;;;21.50;21.00;;;;;;;;5227287;28;8786;-70
2022/04/10 10:16:28;;;;;;;;;17.00;16.20;;;;;;;;5225993;28;8825;-70
2022/04/10 10:19:18;;;;;;;;;18.60;18.60;;;;;;;;5226518;28;8793;-70
2022/04/10 10:21:49;;;;;;;;;24.40;24.20;;;;;;;;5226625;28;8828;-70
2022/04/10 10:24:22;;;;;;;;;21.80;21.60;;;;;;;;5226643;28;9538;-70
2022/04/10 10:26:59;;;;;;;;;26.60;25.60;;;;;;;;5209684;28;8798;-68
2022/04/10 10:29:32;;;;;;;;;32.40;31.20;;;;;;;;5209937;28;8778;-68
2022/04/10 10:32:15;;;;;;;;;20.00;19.60;;;;;;;;5226123;28;8797;-68
2022/04/10 10:34:50;;;;;;;;;22.00;20.00;;;;;;;;5209772;28;8814;-68
2022/04/10 10:37:28;;;;;;;;;19.20;19.00;;;;;;;;5227007;28;8829;-69
2022/04/10 10:39:59;;;;;;;;;16.00;16.00;;;;;;;;5209905;28;8794;-69
2022/04/10 10:42:37;;;;;;;;;17.75;17.25;;;;;;;;5209285;28;8882;-68
2022/04/10 10:45:08;;;;;;;;;17.20;17.20;;;;;;;;5226069;28;8782;-69
2022/04/10 10:47:39;;;;;;;;;15.20;15.00;;;;;;;;5225750;28;8825;-68
2022/04/10 10:50:29;;;;;;;;;11.33;11.33;;;;;;;;5209688;28;9490;-68
2022/04/10 10:53:06;;;;;;;;;19.00;18.00;;;;;;;;5209213;28;10499;-68
2022/04/10 10:55:44;;;;;;;;;13.40;12.80;;;;;;;;5225688;28;8793;-68
2022/04/10 10:58:29;;;;;;;;;17.60;17.60;;;;;;;;5208830;28;9977;-68
2022/04/10 11:01:03;;;;;;;;;16.00;15.60;;;;;;;;5226075;28;8835;-68
2022/04/10 11:04:06;;;;;;;;;19.00;18.00;;;;;;;;5225790;28;8794;-68
2022/04/10 11:07:09;;;;;;;;;18.80;17.20;;;;;;;;5208927;28;8828;-69
2022/04/10 11:09:48;;;;;;;;;18.00;18.00;;;;;;;;5240921;28;9522;-69
2022/04/10 11:12:28;;;;;;;;;16.40;16.40;;;;;;;;5246059;28;8791;-69
2022/04/10 11:15:03;;;;;;;;;19.00;19.00;;;;;;;;5246951;28;8770;-69
2022/04/10 11:17:34;;;;;;;;;23.00;23.00;;;;;;;;5229917;28;8806;-69
2022/04/10 11:20:07;;;;;;;;;21.50;21.25;;;;;;;;5245854;28;8834;-69
2022/04/10 11:23:01;;;;;;;;;27.60;27.60;;;;;;;;5245686;28;10436;-69
2022/04/10 11:25:38;;;;;;;;;30.00;29.40;;;;;;;;5247142;28;8771;-68
2022/04/10 11:28:10;;;;;;;;;24.80;24.40;;;;;;;;5229397;28;8795;-68
2022/04/10 11:30:44;;;;;;;;;30.00;29.40;;;;;;;;5245677;28;8877;-68
2022/04/10 11:33:16;;;;;;;;;33.20;32.20;;;;;;;;5228980;28;9498;-68
2022/04/10 11:36:15;;;;;;;;;19.00;19.00;;;;;;;;5247210;28;9524;-69
2022/04/10 11:39:04;;;;;;;;;17.40;17.40;;;;;;;;5245792;28;8795;-69
2022/04/10 11:41:57;;;;;;;;;12.00;12.00;;;;;;;;5246357;28;9620;-69
2022/04/10 11:44:29;;;;;;;;;16.20;16.20;;;;;;;;5229285;28;8803;-69
2022/04/10 11:47:00;;;;;;;;;17.25;17.25;;;;;;;;5245630;28;8819;-69
2022/04/10 11:49:33;;;;;;;;;18.20;18.20;;;;;;;;5245622;28;8845;-69
2022/04/10 11:52:04;;;;;;;;;23.20;23.00;;;;;;;;5246806;28;8779;-69
2022/04/10 11:54:36;;;;;;;;;22.00;22.00;;;;;;;;5228405;28;8795;-69
2022/04/10 11:57:07;;;;;;;;;20.00;20.00;;;;;;;;5247569;28;8870;-69
2022/04/10 11:59:39;;;;;;;;;24.80;24.80;;;;;;;;5232775;28;8770;-69
2022/04/10 12:02:11;;;;;;;;;22.60;21.00;;;;;;;;5249047;28;8862;-69
2022/04/10 12:04:43;;;;;;;;;22.60;22.00;;;;;;;;5231988;28;9040;-69
2022/04/10 12:07:14;;;;;;;;;26.60;26.20;;;;;;;;5249198;28;8792;-68
2022/04/10 12:09:46;;;;;;;;;24.00;24.00;;;;;;;;5215925;28;8823;-69
2022/04/10 12:12:37;;;;;;;;;21.75;21.50;;;;;;;;5249237;28;8793;-69
2022/04/10 12:15:19;;;;;;;;;25.00;24.80;;;;;;;;5248999;28;8821;-69
2022/04/10 12:18:02;;;;;;;;;21.50;20.25;;;;;;;;5232274;28;8940;-68
2022/04/10 12:20:34;;;;;;;;;24.00;24.00;;;;;;;;5232778;28;8770;-69
2022/04/10 12:23:19;;;;;;;;;25.40;23.40;;;;;;;;5232127;28;8783;-68
2022/04/10 12:25:51;;;;;;;;;27.40;26.00;;;;;;;;5232170;28;8794;-69
2022/04/10 12:28:22;;;;;;;;;25.00;24.00;;;;;;;;5267159;28;8833;-69
2022/04/10 12:30:54;;;;;;;;;27.00;24.60;;;;;;;;5232576;28;8897;-68
2022/04/10 12:33:43;;;;;;;;;31.60;30.80;;;;;;;;5234563;28;8798;-69
2022/04/10 12:36:15;;;;;;;;;37.50;34.00;;;;;;;;5231854;28;8798;-69
2022/04/10 12:39:05;;;;;;;;;27.20;27.20;;;;;;;;5251582;28;11498;-69
2022/04/10 12:41:36;;;;;;;;;23.00;22.00;;;;;;;;5248563;28;8779;-69
2022/04/10 12:44:07;;;;;;;;;10.75;10.75;;;;;;;;5248567;28;11468;-69
2022/04/10 12:46:38;;;;;;;;;18.00;17.80;;;;;;;;5215297;28;8828;-69
2022/04/10 12:49:13;;;;;;;;;18.50;18.25;;;;;;;;5266970;28;8849;-69
2022/04/10 12:51:50;;;;;;;;;21.20;20.80;;;;;;;;5248829;28;8775;-69
2022/04/10 12:54:40;;;;;;;;;21.80;20.20;;;;;;;;5248683;28;8793;-69
2022/04/10 12:57:12;;;;;;;;;30.20;29.20;;;;;;;;5231939;28;8945;-69
2022/04/10 13:00:02;;;;;;;;;29.40;28.00;;;;;;;;5248722;28;8810;-68
2022/04/10 13:02:36;;;;;;;;;33.00;29.80;;;;;;;;5248595;28;8798;-69
2022/04/10 13:05:12;;;;;;;;;33.00;32.00;;;;;;;;5248381;28;8897;-69
2022/04/10 13:08:19;;;;;;;;;28.00;27.60;;;;;;;;5232346;28;8774;-68
2022/04/10 13:10:50;;;;;;;;;27.60;27.40;;;;;;;;5145202;28;8814;-69
2022/04/10 13:13:21;;;;;;;;;32.80;32.20;;;;;;;;5249466;28;8778;-69
2022/04/10 13:15:53;;;;;;;;;48.25;41.25;;;;;;;;5232111;28;8778;-69
2022/04/10 13:18:25;;;;;;;;;48.20;40.80;;;;;;;;5248602;28;11463;-68
2022/04/10 13:20:55;;;;;;;;;41.40;38.00;;;;;;;;5248403;28;8786;-69
2022/04/10 13:23:26;;;;;;;;;39.25;36.75;;;;;;;;5248326;28;8798;-69
2022/04/10 13:25:57;;;;;;;;;33.80;30.20;;;;;;;;5235509;28;8808;-69
2022/04/10 13:28:28;;;;;;;;;30.00;29.00;;;;;;;;5235731;28;9675;-69
2022/04/10 13:30:59;;;;;;;;;24.25;24.00;;;;;;;;5252412;28;8766;-68
2022/04/10 13:33:30;;;;;;;;;29.80;28.40;;;;;;;;5219126;28;8775;-68
2022/04/10 13:36:01;;;;;;;;;26.75;26.00;;;;;;;;5235371;28;8820;-69
2022/04/10 13:38:32;;;;;;;;;33.25;31.50;;;;;;;;5251998;28;11412;-68
2022/04/10 13:41:03;;;;;;;;;30.00;30.00;;;;;;;;5252492;28;9544;-68
2022/04/10 13:43:34;;;;;;;;;32.20;32.00;;;;;;;;5251921;28;11092;-68
2022/04/10 13:46:24;;;;;;;;;32.40;32.40;;;;;;;;5237809;28;8786;-69
2022/04/10 13:48:55;;;;;;;;;38.00;35.75;;;;;;;;5234722;28;8806;-69
2022/04/10 13:51:44;;;;;;;;;41.60;37.00;;;;;;;;5269027;28;10552;-68
2022/04/10 13:54:15;;;;;;;;;54.00;45.60;;;;;;;;5235282;28;8800;-69
2022/04/10 13:56:46;;;;;;;;;47.40;40.80;;;;;;;;5251372;28;8822;-69
2022/04/10 13:59:17;;;;;;;;;44.80;40.40;;;;;;;;5234646;28;8845;-68
2022/04/10 14:01:49;;;;;;;;;42.25;37.50;;;;;;;;5269766;28;9481;-68
2022/04/10 14:04:38;;;;;;;;;41.60;36.40;;;;;;;;5269707;28;10601;-69
2022/04/10 14:07:09;;;;;;;;;46.50;40.75;;;;;;;;5234731;28;8778;-69
2022/04/10 14:09:58;;;;;;;;;44.00;38.60;;;;;;;;5252519;28;10841;-69
2022/04/10 14:12:29;;;;;;;;;48.80;41.60;;;;;;;;5215785;28;9529;-69
2022/04/10 14:15:00;;;;;;;;;37.00;35.50;;;;;;;;5249505;28;8805;-69
2022/04/10 14:17:31;;;;;;;;;33.40;31.60;;;;;;;;5248447;28;8826;-68
2022/04/10 14:20:02;;;;;;;;;27.75;27.00;;;;;;;;5232147;28;8903;-66
2022/04/10 14:22:34;;;;;;;;;28.00;28.00;;;;;;;;5221496;28;8819;-67
2022/04/10 14:25:05;;;;;;;;;27.20;26.40;;;;;;;;5228666;28;8788;-67
2022/04/10 14:27:35;;;;;;;;;28.80;28.00;;;;;;;;5245290;28;8796;-67
2022/04/10 14:30:07;;;;;;;;;26.00;26.00;;;;;;;;5228018;28;8803;-68
2022/04/10 14:32:39;;;;;;;;;26.00;26.00;;;;;;;;5244904;28;8776;-68
2022/04/10 14:35:09;;;;;;;;;30.20;30.20;;;;;;;;5227593;28;8781;-67
2022/04/10 14:37:40;;;;;;;;;27.50;26.50;;;;;;;;5259854;28;8836;-68
2022/04/10 14:40:11;;;;;;;;;29.25;25.75;;;;;;;;5265920;28;11568;-67
2022/04/10 14:43:01;;;;;;;;;24.00;24.00;;;;;;;;5251196;28;8939;-67
2022/04/10 14:45:32;;;;;;;;;61.00;50.50;;;;;;;;5228367;28;9036;-68
2022/04/10 14:48:03;;;;;;;;;33.00;30.00;;;;;;;;5228329;28;8843;-68
2022/04/10 14:50:34;;;;;;;;;30.00;26.50;;;;;;;;5261764;28;8772;-67
2022/04/10 14:53:05;;;;;;;;;32.40;30.00;;;;;;;;5245453;28;9129;-67
2022/04/10 14:55:36;;;;;;;;;34.40;33.20;;;;;;;;5253076;28;8965;-69
2022/04/10 14:58:07;;;;;;;;;29.25;28.00;;;;;;;;5248054;28;8988;-67
2022/04/10 15:00:38;;;;;;;;;42.20;36.00;;;;;;;;5250582;28;11461;-68
2022/04/10 15:03:09;;;;;;;;;34.20;32.80;;;;;;;;5216939;28;8778;-67
2022/04/10 15:05:42;;;;;;;;;31.20;31.00;;;;;;;;5249908;28;8806;-67
2022/04/10 15:08:12;;;;;;;;;26.75;26.75;;;;;;;;5267774;28;8860;-68
2022/04/10 15:10:46;;;;;;;;;23.25;23.25;;;;;;;;5232790;28;8783;-67
2022/04/10 15:13:17;;;;;;;;;21.20;21.20;;;;;;;;5244987;28;8764;-67
2022/04/10 15:15:48;;;;;;;;;29.50;29.25;;;;;;;;5249513;28;8843;-67
2022/04/10 15:18:19;;;;;;;;;34.50;33.50;;;;;;;;5232866;28;11601;-67
2022/04/10 15:20:50;;;;;;;;;42.25;39.25;;;;;;;;5244820;28;8769;-67
2022/04/10 15:23:21;;;;;;;;;34.60;33.80;;;;;;;;5245070;28;9484;-67
2022/04/10 15:25:53;;;;;;;;;45.00;38.20;;;;;;;;5262493;28;8785;-68
2022/04/10 15:28:24;;;;;;;;;147.00;125.00;;;;;;;;5265749;28;8775;-67
2022/04/10 15:31:14;;;;;;;;;31.60;31.60;;;;;;;;5249188;28;8891;-68
2022/04/10 15:33:45;;;;;;;;;36.00;35.00;;;;;;;;5232885;28;8774;-68
2022/04/10 15:36:16;;;;;;;;;45.00;40.50;;;;;;;;5249108;28;8774;-68
2022/04/10 15:39:05;;;;;;;;;38.20;36.00;;;;;;;;5234553;28;12292;-68
2022/04/10 15:41:43;;;;;;;;;33.75;31.25;;;;;;;;5231922;28;8783;-68
2022/04/10 15:44:14;;;;;;;;;27.40;27.40;;;;;;;;5266492;28;8770;-68